Ampton, United Kingdom
Current Conditions -  °F | °C
As of 4:58 AM on Tuesday 27 Jan 2015 (Local Time) from EGUL Reporting Station
Broken Clouds Broken Clouds  
Wind Chill: 29°   Ceiling: 12000
Heat Index: 34°   Visibility: 6mi
Dew Point: 34°   Wind: 6mph
Humidity: 100%   Direction: 260°W
Pressure: 30.3"   Gusts: NA
Location:  52.33°N, 0.85°E
Report Text: EGUL 270458Z AUTO 26005KT 9999 BKN120 01/01 A3030 RMK AO2 SLP264 T00130013 $
Loading
Personal Weather Stations






























Interactive Weather Map New forecast layout! Learn more

10-Day Weather Forecast

Advertisements
Track Severe Weather on mobile